LFKBLFKJ

Guest
Details From LFKB - Poretta
To LFKJ - Campo Dell Oro
Flight Number -
Tags Routegen Generated
Created
Modified
Stats Distance 50 nm / 92 km
Max Altitude 100 ft / 30 m
Waypoints 5
Social Downloads 2
Likes 0
Share VATSIM

Download

Looking for another format? Having issues loading an existing format? Contact us
Advertisement - Login to hide

Notes

Departing runway 16 LFKB. Arriving runway 2 LFKJ.

Route

LFKB +42.47_+009.52 +42.23_+009.18 +41.00_+008.85 LFKJ

ID Type Via Altitude Latitude Longitude Leg Dist Tot Dist Heading (true) Name
O LFKB APT - 0 ft / 0 m 42.54168˚ 9.48825˚ - 0 nm - -
+42.47_+009.52 LATLON - 100 ft / 30 m 42.47253˚ 9.51720˚ 4 nm 4 nm 163° / 163° -
+42.23_+009.18 LATLON - 100 ft / 30 m 42.23479˚ 9.18268˚ 20 nm 24 nm 226° / 226° -
+41.00_+008.85 LATLON - 100 ft / 30 m 41.99704˚ 8.84816˚ 20 nm 45 nm 226° / 226° -
O LFKJ APT - 0 ft / 0 m 41.93140˚ 8.80718˚ 4 nm 49 nm 205° / 205° -

Altitude Profile

Advertisement - Login to hide

LFKB

Details ICAO LFKB (BIA)
Name Bastia Poretta
Region France
Timezone Europe/Paris (UTC+1.0)
Stats Elevation 25 ft / 8 m (AMSL)
Location 42.552508° 9.483709°
Runways 1
Magnetic Variation 2.485° E

METAR

LFKB 132230Z AUTO 13004KT 090V160 CAVOK 09/01 Q1016 BECMG 24010KT

Decode

TAF

TAF TAF LFKB 132000Z 1321/1421 24010KT 9999 FEW040 TEMPO 1406/1415 25018G28KT TX16/1412Z TN06/1404Z

Decode

Departure Runways

ID Width Length Bearing (true) Bearing (mag) Surface Threshold Offset Overrun Length
16 148 ft / 45 m 8,273 ft / 2,522 m 162.83° 160.35° Concrete 0 ft / 0 m 131 ft / 40 m
34 148 ft / 45 m 8,273 ft / 2,522 m 342.84° 340.36° Concrete 0 ft / 0 m 0 ft / 0 m

LFKJ

Details ICAO LFKJ (AJA)
Name Napoleon Bonaparte
Region France
Timezone Europe/Paris (UTC+1.0)
Stats Elevation 18 ft / 5 m (AMSL)
Location 41.922886° 8.799587°
Runways 2
Magnetic Variation 2.329° E

METAR

LFKJ 132230Z AUTO 03006KT 9999 FEW030 BKN037 BKN043 08/07 Q1020 TEMPO 4000 RA BKN014 OVC050

Decode

TAF

TAF LFKJ 132000Z 1321/1421 04006KT 9999 SCT030 BKN060 TEMPO 1321/1409 4000 RA BKN014 OVC050 TEMPO 1401/1412 25012G22KT

Decode

Destination Runways

ID Width Length Bearing (true) Bearing (mag) Surface Threshold Offset Overrun Length
02 180 ft / 55 m 7,899 ft / 2,408 m 24.94° 22.61° Asphalt 0 ft / 0 m 164 ft / 50 m
10 98 ft / 30 m 3,447 ft / 1,051 m 94.35° 92.02° Concrete 0 ft / 0 m 164 ft / 50 m
20 180 ft / 55 m 7,899 ft / 2,408 m 204.95° 202.62° Asphalt 745 ft / 227 m 230 ft / 70 m
28 98 ft / 30 m 3,447 ft / 1,051 m 274.36° 272.03° Concrete 213 ft / 65 m 0 ft / 0 m

Approach Navaids

Runway Type Ident Frequency Range Bearing (true) Bearing (mag) Slope Elevation
02 Localiser AC 110.30 MHz 27 nm / 50 km 24.92° 22.59° - 18 ft / 5 m (AMSL)
02 Glidescope AC 110.30 MHz 27 nm / 50 km 24.92° 22.59° 3.00° 18 ft / 5 m (AMSL)
02 DME AC 110.30 MHz 27 nm / 50 km - - - 18 ft / 5 m (AMSL)

Popular Alternatives